Time;durP1;ratioP1;P1;durP2;ratioP2;P2;SDS_P1;SDS_P2;PMS_P1;PMS_P2;Temp;Humidity;BMP_temperature;BMP_pressure;BME280_temperature;BME280_humidity;BME280_pressure;Samples;Min_cycle;Max_cycle;Signal;HPM_P1;HPM_P2
2023/03/13 00:01:27;;;;;;;;;;;;;;;18.77;35.28;95344.19;10486680;28;3169;-58
2023/03/13 00:06:32;;;;;;;;;;;;;;;18.74;35.21;95319.25;10490914;28;3167;-57
2023/03/13 00:11:33;;;;;;;;;;;;;;;18.73;35.18;95315.09;10475958;28;3163;-56
2023/03/13 00:16:36;;;;;;;;;;;;;;;18.70;35.13;95305.13;10472090;28;3155;-58
2023/03/13 00:21:37;;;;;;;;;;;;;;;18.67;35.24;95309.06;10477423;28;3122;-58
2023/03/13 00:26:37;;;;;;;;;;;;;;;18.68;35.17;95309.84;10474696;28;3261;-58
2023/03/13 00:31:37;;;;;;;;;;;;;;;18.65;35.32;95294.63;10473991;28;2252;-58
2023/03/13 00:36:38;;;;;;;;;;;;;;;18.62;35.17;95288.09;10475349;28;3162;-58
2023/03/13 00:41:39;;;;;;;;;;;;;;;18.61;35.17;95281.28;10454507;28;3162;-58
2023/03/13 00:46:39;;;;;;;;;;;;;;;18.59;35.07;95274.72;10474169;28;3134;-56
2023/03/13 00:51:39;;;;;;;;;;;;;;;18.58;35.07;95257.41;10464407;28;2419;-57
2023/03/13 00:56:39;;;;;;;;;;;;;;;18.56;35.00;95262.94;10480067;28;3323;-56
2023/03/13 01:01:40;;;;;;;;;;;;;;;18.55;35.08;95250.06;10468524;28;3111;-56
2023/03/13 01:06:43;;;;;;;;;;;;;;;18.53;35.13;95262.69;10473159;28;3138;-57
2023/03/13 01:11:44;;;;;;;;;;;;;;;18.51;35.02;95255.09;10468478;28;3296;-58
2023/03/13 01:16:45;;;;;;;;;;;;;;;18.49;34.89;95235.41;10478827;28;3251;-56
2023/03/13 01:21:45;;;;;;;;;;;;;;;18.48;34.97;95233.84;10472325;28;3173;-57
2023/03/13 01:26:46;;;;;;;;;;;;;;;18.46;34.98;95230.72;10479047;28;3207;-57
2023/03/13 01:31:46;;;;;;;;;;;;;;;18.45;34.89;95231.75;10476518;28;3119;-58
2023/03/13 01:36:49;;;;;;;;;;;;;;;18.43;34.82;95232.03;10476557;28;3253;-58
2023/03/13 01:41:49;;;;;;;;;;;;;;;18.41;34.85;95218.38;10477810;28;2368;-58
2023/03/13 01:46:49;;;;;;;;;;;;;;;18.40;35.01;95223.91;10475244;28;3278;-58
2023/03/13 01:51:51;;;;;;;;;;;;;;;18.39;34.80;95225.75;10484070;28;3273;-56
2023/03/13 01:56:52;;;;;;;;;;;;;;;18.38;34.89;95215.53;10489706;28;3219;-58
2023/03/13 02:01:52;;;;;;;;;;;;;;;18.37;34.80;95213.94;10481448;28;3162;-58
2023/03/13 02:06:53;;;;;;;;;;;;;;;18.36;34.89;95204.53;10459987;28;3346;-57
2023/03/13 02:11:55;;;;;;;;;;;;;;;18.33;34.82;95200.59;10454168;28;2412;-57
2023/03/13 02:16:56;;;;;;;;;;;;;;;18.32;34.79;95193.00;10481198;28;3083;-57
2023/03/13 02:22:09;;;;;;;;;;;;;;;18.32;34.74;95187.75;10469045;28;3134;-56
2023/03/13 02:27:10;;;;;;;;;;;;;;;18.31;34.67;95191.41;10457335;28;3392;-56
2023/03/13 02:32:10;;;;;;;;;;;;;;;18.29;34.77;95193.53;10466218;28;3150;-57
2023/03/13 02:37:11;;;;;;;;;;;;;;;18.29;34.69;95204.03;10464327;28;3179;-57
2023/03/13 02:42:13;;;;;;;;;;;;;;;18.26;34.76;95197.47;10468865;28;2280;-56
2023/03/13 02:47:28;;;;;;;;;;;;;;;18.25;34.78;95203.78;10446586;28;3530;-56
2023/03/13 02:52:30;;;;;;;;;;;;;;;18.24;34.70;95211.91;10482608;28;3232;-58
2023/03/13 02:57:32;;;;;;;;;;;;;;;18.24;34.54;95209.28;10479147;28;3146;-56
2023/03/13 03:02:33;;;;;;;;;;;;;;;18.22;34.62;95206.16;10478065;28;3099;-58
2023/03/13 03:07:33;;;;;;;;;;;;;;;18.20;34.56;95200.41;10475838;28;3166;-55
2023/03/13 03:12:33;;;;;;;;;;;;;;;18.20;34.63;95205.63;10477581;28;3171;-57
2023/03/13 03:17:39;;;;;;;;;;;;;;;18.18;34.54;95198.06;10483233;28;2322;-58
2023/03/13 03:22:40;;;;;;;;;;;;;;;18.17;34.57;95195.72;10472745;28;3186;-58
2023/03/13 03:27:41;;;;;;;;;;;;;;;18.15;34.61;95201.22;10461261;28;2435;-57
2023/03/13 03:32:41;;;;;;;;;;;;;;;18.14;34.48;95207.53;10469608;28;3143;-57
2023/03/13 03:37:42;;;;;;;;;;;;;;;18.14;34.60;95211.97;10481658;28;3379;-56
2023/03/13 03:42:43;;;;;;;;;;;;;;;18.13;34.56;95199.94;10468283;28;3150;-56
2023/03/13 03:47:43;;;;;;;;;;;;;;;18.12;34.53;95190.47;10471662;28;3127;-58
2023/03/13 03:52:43;;;;;;;;;;;;;;;18.10;34.55;95190.75;10480331;28;3076;-56
2023/03/13 03:57:44;;;;;;;;;;;;;;;18.10;34.55;95189.97;10462038;28;2283;-58
2023/03/13 04:02:45;;;;;;;;;;;;;;;18.08;34.51;95186.81;10471526;28;3051;-57
2023/03/13 04:07:45;;;;;;;;;;;;;;;18.08;34.50;95171.09;10474419;28;3227;-58
2023/03/13 04:12:46;;;;;;;;;;;;;;;18.07;34.43;95169.53;10475854;28;2222;-58
2023/03/13 04:17:46;;;;;;;;;;;;;;;18.06;34.45;95152.22;10474443;28;2304;-58
2023/03/13 04:22:46;;;;;;;;;;;;;;;18.02;34.39;95133.63;10471663;28;3094;-58
2023/03/13 04:27:47;;;;;;;;;;;;;;;18.02;34.35;95128.38;10472723;28;2287;-54
2023/03/13 04:32:49;;;;;;;;;;;;;;;18.02;34.35;95120.53;10474807;28;3103;-58
2023/03/13 04:37:50;;;;;;;;;;;;;;;18.02;34.44;95117.09;10478645;28;3202;-58
2023/03/13 04:42:50;;;;;;;;;;;;;;;18.00;34.46;95106.91;10479972;28;3259;-57
2023/03/13 04:47:52;;;;;;;;;;;;;;;17.98;34.41;95098.53;10479244;28;3146;-57
2023/03/13 04:52:52;;;;;;;;;;;;;;;17.98;34.34;95087.25;10463292;28;3181;-58
2023/03/13 04:57:53;;;;;;;;;;;;;;;17.97;34.32;95085.69;10471466;28;2284;-57
2023/03/13 05:02:53;;;;;;;;;;;;;;;17.96;34.38;95082.28;10465626;28;3167;-57
2023/03/13 05:07:54;;;;;;;;;;;;;;;17.96;34.34;95084.09;10490996;28;3160;-58
2023/03/13 05:12:54;;;;;;;;;;;;;;;18.01;34.34;95076.97;10474961;28;3121;-57
2023/03/13 05:17:54;;;;;;;;;;;;;;;18.04;34.46;95073.81;10465523;28;3148;-58
2023/03/13 05:22:55;;;;;;;;;;;;;;;18.10;34.46;95069.31;10470404;28;3220;-57
2023/03/13 05:27:55;;;;;;;;;;;;;;;18.17;34.30;95061.94;10480904;28;2289;-57
2023/03/13 05:32:55;;;;;;;;;;;;;;;18.25;34.24;95046.38;10483426;28;3127;-58
2023/03/13 05:37:56;;;;;;;;;;;;;;;18.34;34.20;95038.72;10470395;28;3142;-52
2023/03/13 05:42:56;;;;;;;;;;;;;;;18.42;33.98;95040.75;10480289;28;3167;-51
2023/03/13 05:48:06;;;;;;;;;;;;;;;18.51;33.97;95034.63;10482510;28;3183;-52
2023/03/13 05:53:07;;;;;;;;;;;;;;;18.58;33.96;95035.09;10478134;28;3165;-55
2023/03/13 05:58:08;;;;;;;;;;;;;;;18.65;33.98;95034.75;10485441;28;2257;-55
2023/03/13 06:03:08;;;;;;;;;;;;;;;18.72;33.93;95035.22;10478835;28;3146;-59
2023/03/13 06:08:09;;;;;;;;;;;;;;;18.76;33.95;95020.47;10475518;28;2344;-58
2023/03/13 06:13:09;;;;;;;;;;;;;;;18.80;34.14;95010.97;10479970;28;2270;-58
2023/03/13 06:18:09;;;;;;;;;;;;;;;18.83;34.07;95005.16;10484657;28;2267;-58
2023/03/13 06:23:10;;;;;;;;;;;;;;;18.84;34.12;95001.47;10481718;28;3131;-57
2023/03/13 06:28:10;;;;;;;;;;;;;;;18.86;34.19;94988.06;10470056;28;3223;-59
2023/03/13 06:33:11;;;;;;;;;;;;;;;18.86;34.11;94994.09;10470297;28;3127;-58
2023/03/13 06:38:17;;;;;;;;;;;;;;;18.90;34.09;95000.34;10483942;28;3146;-59
2023/03/13 06:43:18;;;;;;;;;;;;;;;18.93;33.94;94991.13;10475584;28;3108;-59
2023/03/13 06:48:19;;;;;;;;;;;;;;;18.95;33.91;94992.41;10457209;28;2288;-59
2023/03/13 06:53:20;;;;;;;;;;;;;;;18.99;33.73;95001.31;10471656;28;3166;-58
2023/03/13 06:58:21;;;;;;;;;;;;;;;19.04;33.56;94998.59;10469927;28;3258;-59
2023/03/13 07:03:23;;;;;;;;;;;;;;;19.08;33.61;95002.22;10473367;28;2387;-57
2023/03/13 07:08:24;;;;;;;;;;;;;;;19.12;33.61;95002.47;10474349;28;2409;-59
2023/03/13 07:13:24;;;;;;;;;;;;;;;19.14;33.51;95001.13;10475612;28;3288;-59
2023/03/13 07:18:25;;;;;;;;;;;;;;;19.17;33.38;94994.50;10471537;28;3122;-58
2023/03/13 07:23:26;;;;;;;;;;;;;;;19.21;33.37;94995.50;10472057;28;3336;-55
2023/03/13 07:28:26;;;;;;;;;;;;;;;19.21;33.21;94985.78;10458502;28;3387;-54
2023/03/13 07:33:26;;;;;;;;;;;;;;;19.23;33.40;94990.75;10477307;28;2273;-57
2023/03/13 07:38:27;;;;;;;;;;;;;;;19.26;33.03;94977.84;10467981;28;3519;-55
2023/03/13 07:43:28;;;;;;;;;;;;;;;19.30;33.11;94978.84;10473111;28;3365;-56
2023/03/13 07:48:29;;;;;;;;;;;;;;;19.32;33.01;94981.97;10481165;28;2255;-56
2023/03/13 07:53:30;;;;;;;;;;;;;;;19.31;32.99;94980.38;10459528;28;2234;-56
2023/03/13 07:58:32;;;;;;;;;;;;;;;19.35;32.94;94994.56;10467521;28;3578;-55
2023/03/13 08:03:33;;;;;;;;;;;;;;;19.31;33.36;94985.63;10469153;28;3265;-57
2023/03/13 08:08:33;;;;;;;;;;;;;;;19.33;33.57;94977.50;10471446;28;3282;-57
2023/03/13 08:13:34;;;;;;;;;;;;;;;19.32;33.80;94971.44;10479240;28;3329;-57
2023/03/13 08:18:35;;;;;;;;;;;;;;;19.32;33.84;94971.44;10465864;28;2252;-57
2023/03/13 08:23:35;;;;;;;;;;;;;;;19.31;34.17;94972.50;10480006;28;2295;-57
2023/03/13 08:28:36;;;;;;;;;;;;;;;19.31;34.14;94971.72;10479760;28;2311;-54
2023/03/13 08:33:37;;;;;;;;;;;;;;;19.28;34.14;94980.19;10481184;28;3290;-55
2023/03/13 08:38:37;;;;;;;;;;;;;;;19.24;34.16;94969.47;10458933;28;3419;-54
2023/03/13 08:43:37;;;;;;;;;;;;;;;19.23;34.18;94972.34;10468324;28;3226;-55
2023/03/13 08:48:38;;;;;;;;;;;;;;;19.22;34.29;94971.59;10458640;28;3311;-56
2023/03/13 08:53:38;;;;;;;;;;;;;;;19.21;34.21;94977.09;10485120;28;3372;-56
2023/03/13 08:58:39;;;;;;;;;;;;;;;19.17;34.24;94973.47;10480159;28;3606;-55
2023/03/13 09:03:39;;;;;;;;;;;;;;;19.14;34.27;94969.59;10475502;28;3415;-58
2023/03/13 09:08:40;;;;;;;;;;;;;;;19.11;34.28;94970.16;10489987;28;3309;-58
2023/03/13 09:13:53;;;;;;;;;;;;;;;19.08;34.30;94954.94;10481108;28;3314;-56
2023/03/13 09:18:54;;;;;;;;;;;;;;;19.06;34.23;94957.06;10483663;28;3323;-55
2023/03/13 09:23:55;;;;;;;;;;;;;;;19.05;34.32;94952.91;10485679;28;3316;-57
2023/03/13 09:28:56;;;;;;;;;;;;;;;19.03;34.33;94941.88;10464196;28;3419;-54
2023/03/13 09:33:56;;;;;;;;;;;;;;;19.00;34.40;94937.19;10492006;28;3364;-56
2023/03/13 09:38:57;;;;;;;;;;;;;;;18.97;34.35;94929.88;10475524;28;3300;-57
2023/03/13 09:44:06;;;;;;;;;;;;;;;18.93;34.53;94923.63;10485711;28;3308;-57
2023/03/13 09:49:18;;;;;;;;;;;;;;;18.91;34.48;94925.78;10472463;28;3363;-56
2023/03/13 09:54:27;;;;;;;;;;;;;;;18.90;34.44;94915.56;10473246;28;3410;-55
2023/03/13 09:59:31;;;;;;;;;;;;;;;18.88;34.61;94917.66;10484185;28;3324;-56
2023/03/13 10:04:40;;;;;;;;;;;;;;;18.87;34.54;94901.13;10465008;28;2291;-58
2023/03/13 10:09:41;;;;;;;;;;;;;;;18.84;34.63;94901.69;10458490;28;3184;-56
2023/03/13 10:14:43;;;;;;;;;;;;;;;18.81;34.59;94889.13;10464935;28;3269;-57
2023/03/13 10:19:46;;;;;;;;;;;;;;;18.79;34.70;94880.75;10458659;28;3312;-58
2023/03/13 10:24:52;;;;;;;;;;;;;;;18.79;34.72;94878.13;10477335;28;3268;-56
2023/03/13 10:29:52;;;;;;;;;;;;;;;18.78;34.84;94883.66;10446889;28;3235;-56
2023/03/13 10:34:57;;;;;;;;;;;;;;;18.76;34.59;94878.69;10468752;28;2333;-55
2023/03/13 10:40:12;;;;;;;;;;;;;;;18.75;34.65;94864.03;10482123;28;2304;-55
2023/03/13 10:45:14;;;;;;;;;;;;;;;18.74;34.61;94859.81;10469408;28;2314;-55
2023/03/13 10:50:16;;;;;;;;;;;;;;;18.72;34.49;94855.91;10454593;28;3292;-57
2023/03/13 10:55:26;;;;;;;;;;;;;;;18.71;34.62;94854.34;10449940;28;3294;-54
2023/03/13 11:00:27;;;;;;;;;;;;;;;18.69;34.55;94836.28;10478958;28;2252;-57
2023/03/13 11:05:28;;;;;;;;;;;;;;;18.69;34.61;94841.53;10465007;28;3308;-56
2023/03/13 11:10:36;;;;;;;;;;;;;;;18.67;34.56;94835.75;10461905;28;3285;-58
2023/03/13 11:15:57;;;;;;;;;;;;;;;18.66;34.65;94826.31;10468882;28;3416;-58
2023/03/13 11:20:58;;;;;;;;;;;;;;;18.65;34.71;94830.78;10469800;28;3277;-55
2023/03/13 11:26:10;;;;;;;;;;;;;;;18.64;34.63;94821.38;10452853;28;3318;-56
2023/03/13 11:31:23;;;;;;;;;;;;;;;18.64;34.64;94812.72;10485790;28;3300;-57
2023/03/13 11:36:30;;;;;;;;;;;;;;;18.67;34.72;94806.88;10446097;28;3332;-58
2023/03/13 11:41:42;;;;;;;;;;;;;;;18.66;34.74;94800.88;10451399;28;3285;-56
2023/03/13 11:46:43;;;;;;;;;;;;;;;18.67;34.66;94791.13;10447409;28;2319;-56
2023/03/13 11:51:48;;;;;;;;;;;;;;;18.70;34.71;94795.81;10466459;28;3300;-56
2023/03/13 11:57:02;;;;;;;;;;;;;;;18.67;34.71;94783.25;10464808;28;3329;-56
2023/03/13 12:02:10;;;;;;;;;;;;;;;18.71;34.63;94772.97;10451530;28;3276;-56
2023/03/13 12:07:17;;;;;;;;;;;;;;;18.70;34.82;94759.06;10463835;28;3337;-55
2023/03/13 12:12:17;;;;;;;;;;;;;;;18.72;34.90;94756.94;10469101;28;3455;-53
2023/03/13 12:17:20;;;;;;;;;;;;;;;18.71;34.86;94754.59;10464538;28;3280;-56
2023/03/13 12:22:26;;;;;;;;;;;;;;;18.69;34.88;94747.78;10472170;28;2319;-56
2023/03/13 12:27:32;;;;;;;;;;;;;;;18.69;34.88;94752.28;10457167;28;3291;-58
2023/03/13 12:32:35;;;;;;;;;;;;;;;18.68;34.77;94740.19;10471001;28;3343;-56
2023/03/13 12:37:41;;;;;;;;;;;;;;;18.69;34.79;94723.41;10467817;28;3242;-56
2023/03/13 12:42:55;;;;;;;;;;;;;;;18.68;34.81;94727.06;10456938;28;3314;-57
2023/03/13 12:48:16;;;;;;;;;;;;;;;18.70;34.87;94719.69;10460927;28;3648;-58
2023/03/13 12:53:23;;;;;;;;;;;;;;;18.69;34.84;94707.66;10457015;28;2295;-57
2023/03/13 12:58:44;;;;;;;;;;;;;;;18.69;34.79;94699.78;10456548;28;3323;-56
2023/03/13 13:03:59;;;;;;;;;;;;;;;18.68;34.81;94683.25;10448337;28;3265;-55
2023/03/13 13:09:13;;;;;;;;;;;;;;;18.66;35.03;94674.09;10470650;28;3323;-56
2023/03/13 13:14:15;;;;;;;;;;;;;;;18.68;34.83;94661.44;10449017;28;3256;-56
2023/03/13 13:19:21;;;;;;;;;;;;;;;18.69;34.95;94657.78;10475605;28;2274;-57
2023/03/13 13:24:48;;;;;;;;;;;;;;;18.71;34.97;94646.97;10470536;28;2282;-57
2023/03/13 13:29:51;;;;;;;;;;;;;;;18.70;34.98;94648.81;10466514;28;3308;-56
2023/03/13 13:34:53;;;;;;;;;;;;;;;18.69;35.09;94634.16;10464890;28;2292;-56
2023/03/13 13:39:54;;;;;;;;;;;;;;;18.69;34.98;94629.66;10463239;28;3445;-57
2023/03/13 13:45:15;;;;;;;;;;;;;;;18.71;34.87;94639.09;10463043;28;2311;-57
2023/03/13 13:50:22;;;;;;;;;;;;;;;18.71;35.11;94616.25;10458616;28;3331;-57
2023/03/13 13:55:25;;;;;;;;;;;;;;;18.73;35.19;94602.84;10472374;28;3248;-57
2023/03/13 14:00:42;;;;;;;;;;;;;;;18.72;35.12;94593.41;10485891;28;2330;-57
2023/03/13 14:05:42;;;;;;;;;;;;;;;18.72;35.26;94594.19;10462989;28;2236;-57
2023/03/13 14:10:45;;;;;;;;;;;;;;;18.72;35.20;94569.78;10468455;28;3329;-58
2023/03/13 14:15:46;;;;;;;;;;;;;;;18.72;35.22;94573.19;10458662;28;3303;-57
2023/03/13 14:20:51;;;;;;;;;;;;;;;18.71;35.21;94549.84;10475921;28;3340;-57
2023/03/13 14:25:52;;;;;;;;;;;;;;;18.72;35.36;94530.41;10479547;28;3294;-56
2023/03/13 14:30:55;;;;;;;;;;;;;;;18.71;35.38;94519.13;10474849;28;3262;-55
2023/03/13 14:35:56;;;;;;;;;;;;;;;18.71;35.28;94513.09;10467674;28;3333;-58
2023/03/13 14:40:57;;;;;;;;;;;;;;;18.72;35.29;94507.56;10471902;28;3297;-58
2023/03/13 14:45:58;;;;;;;;;;;;;;;18.75;35.39;94496.50;10480359;28;3301;-55
2023/03/13 14:51:03;;;;;;;;;;;;;;;18.81;35.32;94484.03;10478686;28;3265;-57
2023/03/13 14:56:10;;;;;;;;;;;;;;;18.88;35.37;94469.44;10483724;28;3241;-55
2023/03/13 15:01:25;;;;;;;;;;;;;;;18.97;35.46;94459.81;10471025;28;2314;-56
2023/03/13 15:06:25;;;;;;;;;;;;;;;19.03;35.25;94448.13;10472410;28;3227;-56
2023/03/13 15:11:26;;;;;;;;;;;;;;;19.11;35.31;94431.66;10469333;28;3158;-58
2023/03/13 15:16:27;;;;;;;;;;;;;;;19.19;35.16;94424.94;10461070;28;2252;-57
2023/03/13 15:21:28;;;;;;;;;;;;;;;19.25;35.11;94414.03;10480350;28;3273;-58
2023/03/13 15:26:28;;;;;;;;;;;;;;;19.32;35.15;94397.84;10465374;28;2307;-58
2023/03/13 15:31:28;;;;;;;;;;;;;;;19.36;35.02;94378.59;10454197;28;3304;-56
2023/03/13 15:36:29;;;;;;;;;;;;;;;19.43;34.97;94378.94;10470267;28;3325;-55
2023/03/13 15:41:29;;;;;;;;;;;;;;;19.45;34.93;94376.03;10466721;28;2351;-56
2023/03/13 15:46:30;;;;;;;;;;;;;;;19.53;34.80;94379.78;10466841;28;3209;-57
2023/03/13 15:51:31;;;;;;;;;;;;;;;19.56;34.76;94343.16;10466963;28;3294;-58
2023/03/13 15:56:35;;;;;;;;;;;;;;;19.60;34.78;94346.75;10459802;28;3366;-59
2023/03/13 16:01:47;;;;;;;;;;;;;;;19.64;35.04;94324.03;10458002;28;3313;-59
2023/03/13 16:06:48;;;;;;;;;;;;;;;19.70;35.61;94316.81;10442907;28;3311;-59
2023/03/13 16:11:48;;;;;;;;;;;;;;;19.74;35.79;94307.25;10466863;28;3274;-59
2023/03/13 16:16:51;;;;;;;;;;;;;;;19.71;35.69;94281.53;10471405;28;3295;-59
2023/03/13 16:21:52;;;;;;;;;;;;;;;19.71;35.75;94282.34;10465787;28;3434;-59
2023/03/13 16:26:52;;;;;;;;;;;;;;;19.68;35.69;94267.16;10461138;28;3336;-59
2023/03/13 16:32:02;;;;;;;;;;;;;;;19.74;35.50;94265.19;10465051;28;3288;-59
2023/03/13 16:37:13;;;;;;;;;;;;;;;19.77;35.61;94256.69;10476651;28;3261;-59
2023/03/13 16:42:14;;;;;;;;;;;;;;;19.81;35.53;94247.88;10452863;28;3328;-59
2023/03/13 16:47:18;;;;;;;;;;;;;;;19.84;35.42;94238.63;10476240;28;2268;-59
2023/03/13 16:52:18;;;;;;;;;;;;;;;19.88;35.23;94221.94;10480169;28;2362;-59
2023/03/13 16:57:22;;;;;;;;;;;;;;;19.89;35.22;94218.19;10470952;28;2299;-59
2023/03/13 17:02:23;;;;;;;;;;;;;;;19.92;35.17;94211.56;10466427;28;3313;-59
2023/03/13 17:07:24;;;;;;;;;;;;;;;19.94;35.12;94204.16;10474557;28;3361;-58
2023/03/13 17:12:24;;;;;;;;;;;;;;;19.94;35.11;94188.38;10455319;28;2372;-59
2023/03/13 17:17:31;;;;;;;;;;;;;;;19.95;35.25;94182.00;10464609;28;3339;-59
2023/03/13 17:22:33;;;;;;;;;;;;;;;19.96;35.32;94171.22;10475822;28;3214;-59
2023/03/13 17:27:33;;;;;;;;;;;;;;;19.94;35.25;94156.81;10464317;28;2391;-59
2023/03/13 17:32:35;;;;;;;;;;;;;;;19.92;35.42;94151.88;10486829;28;2284;-59
2023/03/13 17:37:35;;;;;;;;;;;;;;;19.91;35.30;94162.66;10472615;28;3325;-59
2023/03/13 17:42:36;;;;;;;;;;;;;;;19.88;35.51;94150.94;10470395;28;3304;-59
2023/03/13 17:47:36;;;;;;;;;;;;;;;19.87;35.48;94148.59;10481396;28;3372;-59
2023/03/13 17:52:36;;;;;;;;;;;;;;;19.82;35.56;94159.25;10476795;28;2240;-59
2023/03/13 17:57:37;;;;;;;;;;;;;;;19.77;35.56;94139.16;10469868;28;3320;-59
2023/03/13 18:02:37;;;;;;;;;;;;;;;19.75;35.69;94148.41;10465841;28;3281;-59
2023/03/13 18:07:42;;;;;;;;;;;;;;;19.71;35.75;94140.38;10471703;28;3262;-58
2023/03/13 18:12:43;;;;;;;;;;;;;;;19.68;35.77;94145.47;10466163;28;3293;-59
2023/03/13 18:17:44;;;;;;;;;;;;;;;19.67;35.67;94146.53;10477722;28;2295;-59
2023/03/13 18:22:45;;;;;;;;;;;;;;;19.64;35.70;94141.91;10471048;28;3283;-56
2023/03/13 18:27:45;;;;;;;;;;;;;;;19.63;35.82;94135.09;10476259;28;3424;-53
2023/03/13 18:32:46;;;;;;;;;;;;;;;19.62;35.72;94123.03;10469876;28;2283;-56
2023/03/13 18:37:46;;;;;;;;;;;;;;;19.60;35.59;94110.19;10466936;28;3273;-58
2023/03/13 18:42:47;;;;;;;;;;;;;;;19.61;35.58;94095.19;10473094;28;3292;-57
2023/03/13 18:47:47;;;;;;;;;;;;;;;19.61;35.57;94088.09;10468472;28;3257;-57
2023/03/13 18:52:48;;;;;;;;;;;;;;;19.59;35.58;94053.47;10475797;28;3479;-58
2023/03/13 18:57:50;;;;;;;;;;;;;;;19.62;35.31;94038.94;10475163;28;2366;-55
2023/03/13 19:02:50;;;;;;;;;;;;;;;19.62;35.78;94015.28;10463730;28;3439;-57
2023/03/13 19:07:51;;;;;;;;;;;;;;;19.71;37.61;94003.66;10485210;28;3286;-59
2023/03/13 19:12:52;;;;;;;;;;;;;;;19.73;37.83;93985.72;10479323;28;2300;-59
2023/03/13 19:17:54;;;;;;;;;;;;;;;19.78;37.74;93979.56;10489014;28;3293;-56
2023/03/13 19:22:56;;;;;;;;;;;;;;;19.82;38.28;93980.47;10467905;28;3269;-57
2023/03/13 19:27:57;;;;;;;;;;;;;;;19.85;38.27;93956.19;10486158;28;2307;-58
2023/03/13 19:32:57;;;;;;;;;;;;;;;19.89;38.05;93957.09;10480431;28;3245;-58
2023/03/13 19:37:57;;;;;;;;;;;;;;;19.94;38.17;93951.69;10476600;28;3278;-57
2023/03/13 19:42:57;;;;;;;;;;;;;;;19.93;38.16;93945.66;10473672;28;3433;-57
2023/03/13 19:47:58;;;;;;;;;;;;;;;19.94;37.76;93949.06;10476982;28;2302;-58
2023/03/13 19:52:59;;;;;;;;;;;;;;;19.94;37.91;93935.91;10477436;28;3339;-58
2023/03/13 19:58:01;;;;;;;;;;;;;;;19.93;38.26;93934.34;10481535;28;3316;-57
2023/03/13 20:03:01;;;;;;;;;;;;;;;19.92;39.12;93922.31;10491023;28;3321;-58
2023/03/13 20:08:11;;;;;;;;;;;;;;;19.93;39.38;93923.84;10447392;28;3298;-57
2023/03/13 20:13:12;;;;;;;;;;;;;;;19.95;39.11;93929.56;10487453;28;3313;-56
2023/03/13 20:18:13;;;;;;;;;;;;;;;19.96;38.46;93944.25;10474633;28;3274;-58
2023/03/13 20:23:13;;;;;;;;;;;;;;;19.94;38.58;93947.22;10485366;28;3336;-57
2023/03/13 20:28:13;;;;;;;;;;;;;;;19.93;39.18;93945.66;10486315;28;3360;-57
2023/03/13 20:33:14;;;;;;;;;;;;;;;19.99;38.68;93954.16;10479340;28;3253;-56
2023/03/13 20:38:14;;;;;;;;;;;;;;;19.98;39.04;93942.09;10478846;28;3353;-56
2023/03/13 20:43:22;;;;;;;;;;;;;;;19.99;38.93;93938.38;10483762;28;3344;-56
2023/03/13 20:48:37;;;;;;;;;;;;;;;19.98;38.86;93934.19;10478850;28;3309;-58
2023/03/13 20:53:38;;;;;;;;;;;;;;;19.97;38.76;93917.63;10481123;28;3249;-56
2023/03/13 20:58:38;;;;;;;;;;;;;;;19.94;39.21;93904.34;10482048;28;3296;-57
2023/03/13 21:03:38;;;;;;;;;;;;;;;19.94;38.83;93909.63;10479638;28;3277;-57
2023/03/13 21:08:39;;;;;;;;;;;;;;;19.90;38.99;93906.06;10483414;28;3485;-57
2023/03/13 21:13:40;;;;;;;;;;;;;;;19.90;38.62;93908.69;10483588;28;2280;-54
2023/03/13 21:18:40;;;;;;;;;;;;;;;19.88;38.82;93902.97;10482000;28;3312;-56
2023/03/13 21:23:40;;;;;;;;;;;;;;;19.85;38.84;93893.06;10484265;28;3282;-57
2023/03/13 21:28:41;;;;;;;;;;;;;;;19.84;38.90;93894.16;10481212;28;3241;-58
2023/03/13 21:33:42;;;;;;;;;;;;;;;19.82;38.91;93893.72;10477754;28;3325;-58
2023/03/13 21:38:43;;;;;;;;;;;;;;;19.84;39.02;93899.44;10477119;28;3338;-56
2023/03/13 21:43:44;;;;;;;;;;;;;;;19.82;39.04;93906.84;10477923;28;3340;-58
2023/03/13 21:48:44;;;;;;;;;;;;;;;19.82;39.23;93917.38;10483423;28;3297;-57
2023/03/13 21:53:45;;;;;;;;;;;;;;;19.79;38.95;93923.25;10485210;28;2295;-58
2023/03/13 21:58:46;;;;;;;;;;;;;;;19.78;39.19;93925.13;10484781;28;3313;-57
2023/03/13 22:03:47;;;;;;;;;;;;;;;19.76;39.13;93939.66;10487201;28;3300;-57
2023/03/13 22:08:54;;;;;;;;;;;;;;;19.76;39.02;93973.84;10473288;28;3282;-56
2023/03/13 22:14:05;;;;;;;;;;;;;;;19.76;39.10;94086.88;10484890;28;2310;-58
2023/03/13 22:19:05;;;;;;;;;;;;;;;19.74;39.04;94149.50;10491118;28;3467;-58
2023/03/13 22:24:05;;;;;;;;;;;;;;;19.72;39.13;94165.56;10487096;28;2288;-57
2023/03/13 22:29:05;;;;;;;;;;;;;;;19.71;39.06;94174.53;10469160;28;3315;-57
2023/03/13 22:34:06;;;;;;;;;;;;;;;19.69;39.32;94175.94;10482798;28;3257;-55
2023/03/13 22:39:06;;;;;;;;;;;;;;;19.68;39.04;94193.53;10488693;28;3431;-57
2023/03/13 22:44:07;;;;;;;;;;;;;;;19.67;39.08;94202.53;10452374;28;3646;-58
2023/03/13 22:49:07;;;;;;;;;;;;;;;19.66;39.15;94193.06;10465194;28;2287;-59
2023/03/13 22:54:08;;;;;;;;;;;;;;;19.65;38.91;94160.00;10480827;28;3364;-59
2023/03/13 22:59:09;;;;;;;;;;;;;;;19.64;38.92;94174.19;10469244;28;3356;-58
2023/03/13 23:04:09;;;;;;;;;;;;;;;19.64;39.04;94191.84;10472615;28;3590;-58
2023/03/13 23:09:10;;;;;;;;;;;;;;;19.63;39.02;94195.53;10484014;28;2256;-59
2023/03/13 23:14:11;;;;;;;;;;;;;;;19.62;38.86;94192.13;10463749;28;3296;-59
2023/03/13 23:19:21;;;;;;;;;;;;;;;19.62;38.85;94186.88;10471130;28;3333;-58
2023/03/13 23:24:21;;;;;;;;;;;;;;;19.60;38.77;94180.41;10468357;28;3598;-59
2023/03/13 23:29:21;;;;;;;;;;;;;;;19.55;38.36;94181.31;10461774;28;3293;-59
2023/03/13 23:34:22;;;;;;;;;;;;;;;19.52;38.25;94192.41;10471718;28;2296;-60
2023/03/13 23:39:23;;;;;;;;;;;;;;;19.47;38.17;94174.91;10485029;28;2308;-59
2023/03/13 23:44:23;;;;;;;;;;;;;;;19.44;38.00;94175.53;10470900;28;3563;-59
2023/03/13 23:49:24;;;;;;;;;;;;;;;19.40;38.01;94185.13;10473015;28;3451;-59
2023/03/13 23:54:24;;;;;;;;;;;;;;;19.38;38.04;94207.50;10462881;28;3302;-59
2023/03/13 23:59:25;;;;;;;;;;;;;;;19.38;37.92;94215.38;10471486;28;3217;-59
